sensor_id;sensor_type;location;lat;lon;timestamp;temperature;humidity
22747;DHT22;11540;52.130;5.648;2022-08-01T00:01:33;19.10;99.90
22747;DHT22;11540;52.130;5.648;2022-08-01T00:03:58;19.10;99.90
22747;DHT22;11540;52.130;5.648;2022-08-01T00:06:24;19.00;99.90
22747;DHT22;11540;52.130;5.648;2022-08-01T00:08:49;19.10;99.90
22747;DHT22;11540;52.130;5.648;2022-08-01T00:11:15;19.10;99.90
22747;DHT22;11540;52.130;5.648;2022-08-01T00:13:40;19.10;99.90
22747;DHT22;11540;52.130;5.648;2022-08-01T00:16:06;19.00;99.90
22747;DHT22;11540;52.130;5.648;2022-08-01T00:18:31;19.10;99.90
22747;DHT22;11540;52.130;5.648;2022-08-01T00:20:57;19.10;99.90
22747;DHT22;11540;52.130;5.648;2022-08-01T00:23:23;19.10;99.90
22747;DHT22;11540;52.130;5.648;2022-08-01T00:25:48;19.00;99.90
22747;DHT22;11540;52.130;5.648;2022-08-01T00:28:14;19.10;99.90
22747;DHT22;11540;52.130;5.648;2022-08-01T00:30:39;19.00;99.90
22747;DHT22;11540;52.130;5.648;2022-08-01T00:33:05;19.00;99.90
22747;DHT22;11540;52.130;5.648;2022-08-01T00:35:30;19.00;99.90
22747;DHT22;11540;52.130;5.648;2022-08-01T00:37:56;19.00;99.90
22747;DHT22;11540;52.130;5.648;2022-08-01T00:40:21;19.00;99.90
22747;DHT22;11540;52.130;5.648;2022-08-01T00:42:47;18.90;99.90
22747;DHT22;11540;52.130;5.648;2022-08-01T00:45:13;18.90;99.90
22747;DHT22;11540;52.130;5.648;2022-08-01T00:47:39;18.90;99.90
22747;DHT22;11540;52.130;5.648;2022-08-01T00:50:05;18.90;99.90
22747;DHT22;11540;52.130;5.648;2022-08-01T00:52:32;18.90;99.90
22747;DHT22;11540;52.130;5.648;2022-08-01T00:54:57;18.90;99.90
22747;DHT22;11540;52.130;5.648;2022-08-01T00:57:23;18.80;99.90
22747;DHT22;11540;52.130;5.648;2022-08-01T00:59:49;18.80;99.90
22747;DHT22;11540;52.130;5.648;2022-08-01T01:02:14;18.80;99.90
22747;DHT22;11540;52.130;5.648;2022-08-01T01:04:41;18.80;99.90
22747;DHT22;11540;52.130;5.648;2022-08-01T01:08:07;18.80;99.90
22747;DHT22;11540;52.130;5.648;2022-08-01T01:10:18;18.80;99.90
22747;DHT22;11540;52.130;5.648;2022-08-01T01:13:05;18.80;99.90
22747;DHT22;11540;52.130;5.648;2022-08-01T01:15:42;18.70;99.90
22747;DHT22;11540;52.130;5.648;2022-08-01T01:18:11;18.70;99.90
22747;DHT22;11540;52.130;5.648;2022-08-01T01:20:41;18.70;99.90
22747;DHT22;11540;52.130;5.648;2022-08-01T01:25:51;18.60;99.90
22747;DHT22;11540;52.130;5.648;2022-08-01T01:31:24;18.60;99.90
22747;DHT22;11540;52.130;5.648;2022-08-01T01:33:53;18.60;99.90
22747;DHT22;11540;52.130;5.648;2022-08-01T01:36:19;18.50;99.90
22747;DHT22;11540;52.130;5.648;2022-08-01T01:38:46;18.50;99.90
22747;DHT22;11540;52.130;5.648;2022-08-01T01:41:15;18.50;99.90
22747;DHT22;11540;52.130;5.648;2022-08-01T01:43:42;18.50;99.90
22747;DHT22;11540;52.130;5.648;2022-08-01T01:46:11;18.50;99.90
22747;DHT22;11540;52.130;5.648;2022-08-01T01:48:38;18.50;99.90
22747;DHT22;11540;52.130;5.648;2022-08-01T01:51:05;18.40;99.90
22747;DHT22;11540;52.130;5.648;2022-08-01T01:53:33;18.50;99.90
22747;DHT22;11540;52.130;5.648;2022-08-01T01:56:00;18.40;99.90
22747;DHT22;11540;52.130;5.648;2022-08-01T01:58:27;18.50;99.90
22747;DHT22;11540;52.130;5.648;2022-08-01T02:00:55;18.50;99.90
22747;DHT22;11540;52.130;5.648;2022-08-01T02:03:22;18.40;99.90
22747;DHT22;11540;52.130;5.648;2022-08-01T02:05:50;18.40;99.90
22747;DHT22;11540;52.130;5.648;2022-08-01T02:08:17;18.50;99.90
22747;DHT22;11540;52.130;5.648;2022-08-01T02:10:44;18.40;99.90
22747;DHT22;11540;52.130;5.648;2022-08-01T02:13:32;18.40;99.90
22747;DHT22;11540;52.130;5.648;2022-08-01T02:15:58;18.40;99.90
22747;DHT22;11540;52.130;5.648;2022-08-01T02:18:24;18.40;99.90
22747;DHT22;11540;52.130;5.648;2022-08-01T02:20:52;18.40;99.90
22747;DHT22;11540;52.130;5.648;2022-08-01T02:23:18;18.40;99.90
22747;DHT22;11540;52.130;5.648;2022-08-01T02:25:52;18.40;99.90
22747;DHT22;11540;52.130;5.648;2022-08-01T02:28:25;18.40;99.90
22747;DHT22;11540;52.130;5.648;2022-08-01T02:30:56;18.40;99.90
22747;DHT22;11540;52.130;5.648;2022-08-01T02:33:25;18.40;99.90
22747;DHT22;11540;52.130;5.648;2022-08-01T02:35:56;18.30;99.90
22747;DHT22;11540;52.130;5.648;2022-08-01T02:38:25;18.30;99.90
22747;DHT22;11540;52.130;5.648;2022-08-01T02:40:52;18.30;99.90
22747;DHT22;11540;52.130;5.648;2022-08-01T02:43:21;18.40;99.90
22747;DHT22;11540;52.130;5.648;2022-08-01T02:45:55;18.30;99.90
22747;DHT22;11540;52.130;5.648;2022-08-01T02:48:25;18.40;99.90
22747;DHT22;11540;52.130;5.648;2022-08-01T02:50:54;18.30;99.90
22747;DHT22;11540;52.130;5.648;2022-08-01T02:53:22;18.40;99.90
22747;DHT22;11540;52.130;5.648;2022-08-01T02:55:50;18.40;99.90
22747;DHT22;11540;52.130;5.648;2022-08-01T02:58:18;18.40;99.90
22747;DHT22;11540;52.130;5.648;2022-08-01T03:00:45;18.40;99.90
22747;DHT22;11540;52.130;5.648;2022-08-01T03:03:14;18.40;99.90
22747;DHT22;11540;52.130;5.648;2022-08-01T03:05:41;18.50;99.90
22747;DHT22;11540;52.130;5.648;2022-08-01T03:08:08;18.40;99.90
22747;DHT22;11540;52.130;5.648;2022-08-01T03:10:36;18.40;99.90
22747;DHT22;11540;52.130;5.648;2022-08-01T03:13:05;18.40;99.90
22747;DHT22;11540;52.130;5.648;2022-08-01T03:15:35;18.40;99.90
22747;DHT22;11540;52.130;5.648;2022-08-01T03:18:02;18.40;99.90
22747;DHT22;11540;52.130;5.648;2022-08-01T03:20:30;18.40;99.90
22747;DHT22;11540;52.130;5.648;2022-08-01T03:23:01;18.40;99.90
22747;DHT22;11540;52.130;5.648;2022-08-01T03:25:29;18.40;99.90
22747;DHT22;11540;52.130;5.648;2022-08-01T03:27:58;18.40;99.90
22747;DHT22;11540;52.130;5.648;2022-08-01T03:30:26;18.40;99.90
22747;DHT22;11540;52.130;5.648;2022-08-01T03:32:52;18.40;99.90
22747;DHT22;11540;52.130;5.648;2022-08-01T03:35:18;18.30;99.90
22747;DHT22;11540;52.130;5.648;2022-08-01T03:37:46;18.30;99.90
22747;DHT22;11540;52.130;5.648;2022-08-01T03:40:31;18.30;99.90
22747;DHT22;11540;52.130;5.648;2022-08-01T03:43:04;18.30;99.90
22747;DHT22;11540;52.130;5.648;2022-08-01T03:45:36;18.30;99.90
22747;DHT22;11540;52.130;5.648;2022-08-01T03:48:10;18.30;99.90
22747;DHT22;11540;52.130;5.648;2022-08-01T03:50:41;18.20;99.90
22747;DHT22;11540;52.130;5.648;2022-08-01T03:53:08;18.20;99.90
22747;DHT22;11540;52.130;5.648;2022-08-01T03:55:36;18.20;99.90
22747;DHT22;11540;52.130;5.648;2022-08-01T03:58:03;18.20;99.90
22747;DHT22;11540;52.130;5.648;2022-08-01T04:00:30;18.20;99.90
22747;DHT22;11540;52.130;5.648;2022-08-01T04:02:56;18.20;99.90
22747;DHT22;11540;52.130;5.648;2022-08-01T04:05:22;18.20;99.90
22747;DHT22;11540;52.130;5.648;2022-08-01T04:07:49;18.30;99.90
22747;DHT22;11540;52.130;5.648;2022-08-01T04:10:24;18.30;99.90
22747;DHT22;11540;52.130;5.648;2022-08-01T04:12:50;18.30;99.90
22747;DHT22;11540;52.130;5.648;2022-08-01T04:15:16;18.30;99.90
22747;DHT22;11540;52.130;5.648;2022-08-01T04:17:41;18.30;99.90
22747;DHT22;11540;52.130;5.648;2022-08-01T04:20:07;18.30;99.90
22747;DHT22;11540;52.130;5.648;2022-08-01T04:22:33;18.30;99.90
22747;DHT22;11540;52.130;5.648;2022-08-01T04:25:02;18.30;99.90
22747;DHT22;11540;52.130;5.648;2022-08-01T04:27:37;18.30;99.90
22747;DHT22;11540;52.130;5.648;2022-08-01T04:30:04;18.40;99.90
22747;DHT22;11540;52.130;5.648;2022-08-01T04:32:33;18.30;99.90
22747;DHT22;11540;52.130;5.648;2022-08-01T04:35:02;18.40;99.90
22747;DHT22;11540;52.130;5.648;2022-08-01T04:37:30;18.40;99.90
22747;DHT22;11540;52.130;5.648;2022-08-01T04:39:56;18.40;99.90
22747;DHT22;11540;52.130;5.648;2022-08-01T04:42:23;18.50;99.90
22747;DHT22;11540;52.130;5.648;2022-08-01T04:44:48;18.50;99.90
22747;DHT22;11540;52.130;5.648;2022-08-01T04:47:14;18.50;99.90
22747;DHT22;11540;52.130;5.648;2022-08-01T04:49:40;18.50;99.90
22747;DHT22;11540;52.130;5.648;2022-08-01T04:52:06;18.50;99.90
22747;DHT22;11540;52.130;5.648;2022-08-01T04:54:34;18.50;99.90
22747;DHT22;11540;52.130;5.648;2022-08-01T04:57:03;18.50;99.90
22747;DHT22;11540;52.130;5.648;2022-08-01T04:59:29;18.50;99.90
22747;DHT22;11540;52.130;5.648;2022-08-01T05:02:04;18.50;99.90
22747;DHT22;11540;52.130;5.648;2022-08-01T05:04:30;18.50;99.90
22747;DHT22;11540;52.130;5.648;2022-08-01T05:06:56;18.60;99.90
22747;DHT22;11540;52.130;5.648;2022-08-01T05:09:21;18.60;99.90
22747;DHT22;11540;52.130;5.648;2022-08-01T05:11:46;18.50;99.90
22747;DHT22;11540;52.130;5.648;2022-08-01T05:14:12;18.50;99.90
22747;DHT22;11540;52.130;5.648;2022-08-01T05:16:37;18.60;99.90
22747;DHT22;11540;52.130;5.648;2022-08-01T05:19:03;18.70;99.90
22747;DHT22;11540;52.130;5.648;2022-08-01T05:21:28;18.70;99.90
22747;DHT22;11540;52.130;5.648;2022-08-01T05:23:54;18.70;99.90
22747;DHT22;11540;52.130;5.648;2022-08-01T05:26:19;18.70;99.90
22747;DHT22;11540;52.130;5.648;2022-08-01T05:28:45;18.70;99.90
22747;DHT22;11540;52.130;5.648;2022-08-01T05:31:10;18.70;99.90
22747;DHT22;11540;52.130;5.648;2022-08-01T05:33:36;18.70;99.90
22747;DHT22;11540;52.130;5.648;2022-08-01T05:36:02;18.70;99.90
22747;DHT22;11540;52.130;5.648;2022-08-01T05:38:27;18.70;99.90
22747;DHT22;11540;52.130;5.648;2022-08-01T05:40:53;18.80;99.90
22747;DHT22;11540;52.130;5.648;2022-08-01T05:43:18;18.80;99.90
22747;DHT22;11540;52.130;5.648;2022-08-01T05:45:44;18.90;99.90
22747;DHT22;11540;52.130;5.648;2022-08-01T05:48:11;19.00;99.90
22747;DHT22;11540;52.130;5.648;2022-08-01T05:50:36;19.10;99.90
22747;DHT22;11540;52.130;5.648;2022-08-01T05:53:02;19.30;99.90
22747;DHT22;11540;52.130;5.648;2022-08-01T05:55:27;19.40;99.90
22747;DHT22;11540;52.130;5.648;2022-08-01T05:57:53;19.60;99.90
22747;DHT22;11540;52.130;5.648;2022-08-01T06:00:18;19.70;99.90
22747;DHT22;11540;52.130;5.648;2022-08-01T06:02:44;19.70;99.90
22747;DHT22;11540;52.130;5.648;2022-08-01T06:05:10;19.80;99.90
22747;DHT22;11540;52.130;5.648;2022-08-01T06:07:36;19.80;99.90
22747;DHT22;11540;52.130;5.648;2022-08-01T06:10:02;19.90;99.90
22747;DHT22;11540;52.130;5.648;2022-08-01T06:12:28;19.90;99.90
22747;DHT22;11540;52.130;5.648;2022-08-01T06:14:53;19.80;99.90
22747;DHT22;11540;52.130;5.648;2022-08-01T06:17:19;19.70;99.90
22747;DHT22;11540;52.130;5.648;2022-08-01T06:19:44;19.70;99.90
22747;DHT22;11540;52.130;5.648;2022-08-01T06:22:10;19.70;99.90
22747;DHT22;11540;52.130;5.648;2022-08-01T06:24:35;19.70;99.90
22747;DHT22;11540;52.130;5.648;2022-08-01T06:27:02;19.80;99.90
22747;DHT22;11540;52.130;5.648;2022-08-01T06:29:30;19.70;99.90
22747;DHT22;11540;52.130;5.648;2022-08-01T06:31:55;19.80;99.90
22747;DHT22;11540;52.130;5.648;2022-08-01T06:34:21;19.90;99.90
22747;DHT22;11540;52.130;5.648;2022-08-01T06:36:47;19.90;99.90
22747;DHT22;11540;52.130;5.648;2022-08-01T06:39:13;20.00;99.90
22747;DHT22;11540;52.130;5.648;2022-08-01T06:41:38;20.00;99.90
22747;DHT22;11540;52.130;5.648;2022-08-01T06:44:06;20.10;99.90
22747;DHT22;11540;52.130;5.648;2022-08-01T06:46:32;20.10;99.90
22747;DHT22;11540;52.130;5.648;2022-08-01T06:48:58;20.10;99.90
22747;DHT22;11540;52.130;5.648;2022-08-01T06:51:23;20.20;99.90
22747;DHT22;11540;52.130;5.648;2022-08-01T06:53:49;20.10;99.90
22747;DHT22;11540;52.130;5.648;2022-08-01T06:56:14;20.20;99.90
22747;DHT22;11540;52.130;5.648;2022-08-01T06:58:40;20.20;99.90
22747;DHT22;11540;52.130;5.648;2022-08-01T07:01:06;20.20;99.90
22747;DHT22;11540;52.130;5.648;2022-08-01T07:03:33;20.20;99.90
22747;DHT22;11540;52.130;5.648;2022-08-01T07:05:58;20.20;99.90
22747;DHT22;11540;52.130;5.648;2022-08-01T07:08:24;20.20;99.90
22747;DHT22;11540;52.130;5.648;2022-08-01T07:10:50;20.20;99.90
22747;DHT22;11540;52.130;5.648;2022-08-01T07:13:15;20.20;99.90
22747;DHT22;11540;52.130;5.648;2022-08-01T07:15:46;20.20;99.90
22747;DHT22;11540;52.130;5.648;2022-08-01T07:18:11;20.30;99.90
22747;DHT22;11540;52.130;5.648;2022-08-01T07:20:37;20.30;99.90
22747;DHT22;11540;52.130;5.648;2022-08-01T07:23:03;20.40;99.90
22747;DHT22;11540;52.130;5.648;2022-08-01T07:25:29;20.50;99.90
22747;DHT22;11540;52.130;5.648;2022-08-01T07:27:55;20.50;99.90
22747;DHT22;11540;52.130;5.648;2022-08-01T07:30:20;20.60;99.90
22747;DHT22;11540;52.130;5.648;2022-08-01T07:32:46;20.70;99.90
22747;DHT22;11540;52.130;5.648;2022-08-01T07:35:12;20.70;99.90
22747;DHT22;11540;52.130;5.648;2022-08-01T07:37:37;20.70;99.90
22747;DHT22;11540;52.130;5.648;2022-08-01T07:40:03;20.70;99.90
22747;DHT22;11540;52.130;5.648;2022-08-01T07:42:30;20.70;99.90
22747;DHT22;11540;52.130;5.648;2022-08-01T07:44:56;20.60;99.90
22747;DHT22;11540;52.130;5.648;2022-08-01T07:47:25;20.60;99.90
22747;DHT22;11540;52.130;5.648;2022-08-01T07:49:52;20.50;99.90
22747;DHT22;11540;52.130;5.648;2022-08-01T07:52:17;20.40;99.90
22747;DHT22;11540;52.130;5.648;2022-08-01T07:54:43;20.30;99.90
22747;DHT22;11540;52.130;5.648;2022-08-01T07:57:09;20.40;99.90
22747;DHT22;11540;52.130;5.648;2022-08-01T07:59:34;20.20;99.90
22747;DHT22;11540;52.130;5.648;2022-08-01T08:02:00;20.20;99.90
22747;DHT22;11540;52.130;5.648;2022-08-01T08:04:27;20.10;99.90
22747;DHT22;11540;52.130;5.648;2022-08-01T08:06:53;20.20;99.90
22747;DHT22;11540;52.130;5.648;2022-08-01T08:09:18;20.20;99.90
22747;DHT22;11540;52.130;5.648;2022-08-01T08:11:45;20.30;99.90
22747;DHT22;11540;52.130;5.648;2022-08-01T08:14:10;20.30;99.90
22747;DHT22;11540;52.130;5.648;2022-08-01T08:16:36;20.30;99.90
22747;DHT22;11540;52.130;5.648;2022-08-01T08:19:02;20.40;99.90
22747;DHT22;11540;52.130;5.648;2022-08-01T08:21:27;20.40;99.90
22747;DHT22;11540;52.130;5.648;2022-08-01T08:23:53;20.40;99.90
22747;DHT22;11540;52.130;5.648;2022-08-01T08:26:37;20.40;99.90
22747;DHT22;11540;52.130;5.648;2022-08-01T08:29:03;20.40;99.90
22747;DHT22;11540;52.130;5.648;2022-08-01T08:31:29;20.50;99.90
22747;DHT22;11540;52.130;5.648;2022-08-01T08:33:54;20.60;99.90
22747;DHT22;11540;52.130;5.648;2022-08-01T08:36:20;20.90;99.90
22747;DHT22;11540;52.130;5.648;2022-08-01T08:38:45;21.10;99.90
22747;DHT22;11540;52.130;5.648;2022-08-01T08:41:11;21.30;99.90
22747;DHT22;11540;52.130;5.648;2022-08-01T08:43:37;21.40;99.90
22747;DHT22;11540;52.130;5.648;2022-08-01T08:46:03;21.60;99.90
22747;DHT22;11540;52.130;5.648;2022-08-01T08:48:30;21.60;99.90
22747;DHT22;11540;52.130;5.648;2022-08-01T08:50:57;21.70;99.90
22747;DHT22;11540;52.130;5.648;2022-08-01T08:53:25;21.90;99.90
22747;DHT22;11540;52.130;5.648;2022-08-01T08:55:51;22.00;99.90
22747;DHT22;11540;52.130;5.648;2022-08-01T08:58:18;22.10;99.90
22747;DHT22;11540;52.130;5.648;2022-08-01T09:00:44;22.10;99.90
22747;DHT22;11540;52.130;5.648;2022-08-01T09:03:11;22.20;99.90
22747;DHT22;11540;52.130;5.648;2022-08-01T09:05:37;22.20;99.90
22747;DHT22;11540;52.130;5.648;2022-08-01T09:08:06;22.20;99.90
22747;DHT22;11540;52.130;5.648;2022-08-01T09:10:32;22.40;99.90
22747;DHT22;11540;52.130;5.648;2022-08-01T09:13:06;22.20;99.90
22747;DHT22;11540;52.130;5.648;2022-08-01T09:15:58;22.30;99.90
22747;DHT22;11540;52.130;5.648;2022-08-01T09:18:38;22.50;99.90
22747;DHT22;11540;52.130;5.648;2022-08-01T09:21:10;22.60;99.90
22747;DHT22;11540;52.130;5.648;2022-08-01T09:23:37;22.70;99.90
22747;DHT22;11540;52.130;5.648;2022-08-01T09:26:06;22.80;99.90
22747;DHT22;11540;52.130;5.648;2022-08-01T09:28:32;22.90;99.90
22747;DHT22;11540;52.130;5.648;2022-08-01T09:30:58;23.00;99.90
22747;DHT22;11540;52.130;5.648;2022-08-01T09:33:24;23.00;99.90
22747;DHT22;11540;52.130;5.648;2022-08-01T09:35:56;22.90;99.90
22747;DHT22;11540;52.130;5.648;2022-08-01T09:38:24;22.70;99.90
22747;DHT22;11540;52.130;5.648;2022-08-01T09:41:00;22.60;99.90
22747;DHT22;11540;52.130;5.648;2022-08-01T09:43:27;22.40;99.90
22747;DHT22;11540;52.130;5.648;2022-08-01T09:45:53;22.40;99.90
22747;DHT22;11540;52.130;5.648;2022-08-01T09:48:20;22.50;99.90
22747;DHT22;11540;52.130;5.648;2022-08-01T09:50:48;22.70;99.90
22747;DHT22;11540;52.130;5.648;2022-08-01T09:53:14;22.90;99.90
22747;DHT22;11540;52.130;5.648;2022-08-01T09:55:40;23.10;99.90
22747;DHT22;11540;52.130;5.648;2022-08-01T09:58:07;23.30;99.90
22747;DHT22;11540;52.130;5.648;2022-08-01T10:00:34;23.40;99.90
22747;DHT22;11540;52.130;5.648;2022-08-01T10:03:24;23.20;99.90
22747;DHT22;11540;52.130;5.648;2022-08-01T10:05:50;23.20;99.90
22747;DHT22;11540;52.130;5.648;2022-08-01T10:08:17;23.10;99.90
22747;DHT22;11540;52.130;5.648;2022-08-01T10:11:08;23.00;99.90
22747;DHT22;11540;52.130;5.648;2022-08-01T10:13:34;22.90;99.90
22747;DHT22;11540;52.130;5.648;2022-08-01T10:16:01;22.80;99.90
22747;DHT22;11540;52.130;5.648;2022-08-01T10:18:31;23.10;99.90
22747;DHT22;11540;52.130;5.648;2022-08-01T10:20:59;23.30;99.90
22747;DHT22;11540;52.130;5.648;2022-08-01T10:23:26;23.40;99.90
22747;DHT22;11540;52.130;5.648;2022-08-01T10:25:54;23.30;99.90
22747;DHT22;11540;52.130;5.648;2022-08-01T10:28:21;23.60;99.90
22747;DHT22;11540;52.130;5.648;2022-08-01T10:30:47;23.90;99.90
22747;DHT22;11540;52.130;5.648;2022-08-01T10:33:13;24.00;99.90
22747;DHT22;11540;52.130;5.648;2022-08-01T10:35:39;24.30;99.90
22747;DHT22;11540;52.130;5.648;2022-08-01T10:38:05;24.60;99.90
22747;DHT22;11540;52.130;5.648;2022-08-01T10:40:31;25.00;99.90
22747;DHT22;11540;52.130;5.648;2022-08-01T10:42:58;25.00;99.90
22747;DHT22;11540;52.130;5.648;2022-08-01T10:45:24;25.20;99.90
22747;DHT22;11540;52.130;5.648;2022-08-01T10:48:04;25.30;99.90
22747;DHT22;11540;52.130;5.648;2022-08-01T10:50:38;25.50;99.90
22747;DHT22;11540;52.130;5.648;2022-08-01T10:53:22;25.60;99.90
22747;DHT22;11540;52.130;5.648;2022-08-01T10:58:24;25.30;99.90
22747;DHT22;11540;52.130;5.648;2022-08-01T11:01:17;25.20;99.90
22747;DHT22;11540;52.130;5.648;2022-08-01T11:03:46;25.30;99.90
22747;DHT22;11540;52.130;5.648;2022-08-01T11:06:24;25.50;99.90
22747;DHT22;11540;52.130;5.648;2022-08-01T11:08:52;25.80;99.90
22747;DHT22;11540;52.130;5.648;2022-08-01T11:11:19;26.00;99.90
22747;DHT22;11540;52.130;5.648;2022-08-01T11:14:04;26.20;99.90
22747;DHT22;11540;52.130;5.648;2022-08-01T11:16:34;26.10;99.90
22747;DHT22;11540;52.130;5.648;2022-08-01T11:19:00;26.10;99.90
22747;DHT22;11540;52.130;5.648;2022-08-01T11:27:25;27.10;99.90
22747;DHT22;11540;52.130;5.648;2022-08-01T11:32:55;27.00;99.90
22747;DHT22;11540;52.130;5.648;2022-08-01T11:35:22;26.80;99.90
22747;DHT22;11540;52.130;5.648;2022-08-01T11:38:26;26.60;99.90
22747;DHT22;11540;52.130;5.648;2022-08-01T11:41:21;26.30;99.90
22747;DHT22;11540;52.130;5.648;2022-08-01T11:46:46;26.00;99.90
22747;DHT22;11540;52.130;5.648;2022-08-01T11:52:04;25.70;99.90
22747;DHT22;11540;52.130;5.648;2022-08-01T11:54:34;25.50;99.90
22747;DHT22;11540;52.130;5.648;2022-08-01T11:57:06;25.60;99.90
22747;DHT22;11540;52.130;5.648;2022-08-01T11:59:47;25.30;99.90
22747;DHT22;11540;52.130;5.648;2022-08-01T12:02:26;24.80;99.90
22747;DHT22;11540;52.130;5.648;2022-08-01T12:04:53;24.80;99.90
22747;DHT22;11540;52.130;5.648;2022-08-01T12:07:19;25.00;99.90
22747;DHT22;11540;52.130;5.648;2022-08-01T12:09:46;25.30;99.90
22747;DHT22;11540;52.130;5.648;2022-08-01T12:12:15;25.70;99.90
22747;DHT22;11540;52.130;5.648;2022-08-01T12:14:42;25.90;99.90
22747;DHT22;11540;52.130;5.648;2022-08-01T12:17:08;26.10;99.90
22747;DHT22;11540;52.130;5.648;2022-08-01T12:19:33;26.10;99.90
22747;DHT22;11540;52.130;5.648;2022-08-01T12:22:06;26.30;99.90
22747;DHT22;11540;52.130;5.648;2022-08-01T12:24:35;26.40;99.90
22747;DHT22;11540;52.130;5.648;2022-08-01T12:27:02;26.70;99.90
22747;DHT22;11540;52.130;5.648;2022-08-01T12:29:33;26.10;99.90
22747;DHT22;11540;52.130;5.648;2022-08-01T12:31:58;26.00;99.90
22747;DHT22;11540;52.130;5.648;2022-08-01T12:34:25;26.20;99.90
22747;DHT22;11540;52.130;5.648;2022-08-01T12:36:54;26.30;99.90
22747;DHT22;11540;52.130;5.648;2022-08-01T12:39:20;26.80;99.90
22747;DHT22;11540;52.130;5.648;2022-08-01T12:41:45;27.60;99.90
22747;DHT22;11540;52.130;5.648;2022-08-01T12:44:14;28.50;99.90
22747;DHT22;11540;52.130;5.648;2022-08-01T12:46:41;29.00;99.90
22747;DHT22;11540;52.130;5.648;2022-08-01T12:49:07;28.90;99.90
22747;DHT22;11540;52.130;5.648;2022-08-01T12:51:33;29.10;99.90
22747;DHT22;11540;52.130;5.648;2022-08-01T12:53:59;29.30;99.90
22747;DHT22;11540;52.130;5.648;2022-08-01T12:56:32;29.10;99.90
22747;DHT22;11540;52.130;5.648;2022-08-01T12:58:58;28.80;99.90
22747;DHT22;11540;52.130;5.648;2022-08-01T13:01:28;28.90;99.90
22747;DHT22;11540;52.130;5.648;2022-08-01T13:04:03;29.00;99.90
22747;DHT22;11540;52.130;5.648;2022-08-01T13:06:31;28.80;99.90
22747;DHT22;11540;52.130;5.648;2022-08-01T13:09:08;28.90;99.90
22747;DHT22;11540;52.130;5.648;2022-08-01T13:11:38;28.90;99.90
22747;DHT22;11540;52.130;5.648;2022-08-01T13:14:04;29.30;99.90
22747;DHT22;11540;52.130;5.648;2022-08-01T13:16:30;29.50;99.90
22747;DHT22;11540;52.130;5.648;2022-08-01T13:18:56;29.40;99.90
22747;DHT22;11540;52.130;5.648;2022-08-01T13:21:24;30.00;99.50
22747;DHT22;11540;52.130;5.648;2022-08-01T13:24:12;30.40;98.70
22747;DHT22;11540;52.130;5.648;2022-08-01T13:26:49;30.70;98.00
22747;DHT22;11540;52.130;5.648;2022-08-01T13:29:16;30.50;98.10
22747;DHT22;11540;52.130;5.648;2022-08-01T13:31:43;30.50;98.00
22747;DHT22;11540;52.130;5.648;2022-08-01T13:34:09;30.90;96.10
22747;DHT22;11540;52.130;5.648;2022-08-01T13:36:35;31.00;96.00
22747;DHT22;11540;52.130;5.648;2022-08-01T13:39:01;30.80;96.50
22747;DHT22;11540;52.130;5.648;2022-08-01T13:41:46;30.10;97.20
22747;DHT22;11540;52.130;5.648;2022-08-01T13:44:12;29.80;97.40
22747;DHT22;11540;52.130;5.648;2022-08-01T13:46:38;29.90;97.10
22747;DHT22;11540;52.130;5.648;2022-08-01T13:49:06;29.60;96.80
22747;DHT22;11540;52.130;5.648;2022-08-01T13:51:32;29.40;98.20
22747;DHT22;11540;52.130;5.648;2022-08-01T13:53:58;29.30;96.90
22747;DHT22;11540;52.130;5.648;2022-08-01T13:56:24;29.30;96.30
22747;DHT22;11540;52.130;5.648;2022-08-01T13:58:50;29.30;96.70
22747;DHT22;11540;52.130;5.648;2022-08-01T14:01:16;28.70;97.10
22747;DHT22;11540;52.130;5.648;2022-08-01T14:03:41;29.20;97.00
22747;DHT22;11540;52.130;5.648;2022-08-01T14:06:07;30.00;96.20
22747;DHT22;11540;52.130;5.648;2022-08-01T14:08:33;30.40;96.80
22747;DHT22;11540;52.130;5.648;2022-08-01T14:10:58;30.80;96.00
22747;DHT22;11540;52.130;5.648;2022-08-01T14:13:27;30.90;95.60
22747;DHT22;11540;52.130;5.648;2022-08-01T14:15:52;30.40;96.80
22747;DHT22;11540;52.130;5.648;2022-08-01T14:18:18;30.00;95.70
22747;DHT22;11540;52.130;5.648;2022-08-01T14:20:44;29.90;96.80
22747;DHT22;11540;52.130;5.648;2022-08-01T14:23:09;30.10;96.40
22747;DHT22;11540;52.130;5.648;2022-08-01T14:25:37;30.70;95.70
22747;DHT22;11540;52.130;5.648;2022-08-01T14:28:03;31.10;95.00
22747;DHT22;11540;52.130;5.648;2022-08-01T14:30:29;31.20;95.20
22747;DHT22;11540;52.130;5.648;2022-08-01T14:32:54;30.50;95.30
22747;DHT22;11540;52.130;5.648;2022-08-01T14:35:20;30.00;95.20
22747;DHT22;11540;52.130;5.648;2022-08-01T14:37:45;29.60;94.80
22747;DHT22;11540;52.130;5.648;2022-08-01T14:40:11;29.90;95.20
22747;DHT22;11540;52.130;5.648;2022-08-01T14:42:37;30.10;95.70
22747;DHT22;11540;52.130;5.648;2022-08-01T14:45:05;30.50;94.20
22747;DHT22;11540;52.130;5.648;2022-08-01T14:47:35;31.10;93.90
22747;DHT22;11540;52.130;5.648;2022-08-01T14:50:01;31.30;93.40
22747;DHT22;11540;52.130;5.648;2022-08-01T14:52:27;31.50;93.30
22747;DHT22;11540;52.130;5.648;2022-08-01T14:54:52;31.00;92.90
22747;DHT22;11540;52.130;5.648;2022-08-01T14:57:18;30.50;93.10
22747;DHT22;11540;52.130;5.648;2022-08-01T14:59:44;30.00;93.70
22747;DHT22;11540;52.130;5.648;2022-08-01T15:02:09;29.70;94.60
22747;DHT22;11540;52.130;5.648;2022-08-01T15:04:36;29.80;94.70
22747;DHT22;11540;52.130;5.648;2022-08-01T15:07:02;30.20;93.70
22747;DHT22;11540;52.130;5.648;2022-08-01T15:09:27;30.30;92.80
22747;DHT22;11540;52.130;5.648;2022-08-01T15:11:53;29.70;93.50
22747;DHT22;11540;52.130;5.648;2022-08-01T15:14:19;29.10;94.30
22747;DHT22;11540;52.130;5.648;2022-08-01T15:17:03;29.40;93.00
22747;DHT22;11540;52.130;5.648;2022-08-01T15:19:28;29.20;94.50
22747;DHT22;11540;52.130;5.648;2022-08-01T15:21:54;28.80;94.50
22747;DHT22;11540;52.130;5.648;2022-08-01T15:24:19;28.50;93.80
22747;DHT22;11540;52.130;5.648;2022-08-01T15:26:45;28.30;93.30
22747;DHT22;11540;52.130;5.648;2022-08-01T15:29:10;27.80;94.20
22747;DHT22;11540;52.130;5.648;2022-08-01T15:31:38;28.30;93.00
22747;DHT22;11540;52.130;5.648;2022-08-01T15:34:04;28.90;92.30
22747;DHT22;11540;52.130;5.648;2022-08-01T15:36:29;28.30;93.90
22747;DHT22;11540;52.130;5.648;2022-08-01T15:38:55;27.90;94.20
22747;DHT22;11540;52.130;5.648;2022-08-01T15:41:20;28.00;93.90
22747;DHT22;11540;52.130;5.648;2022-08-01T15:43:46;27.80;93.00
22747;DHT22;11540;52.130;5.648;2022-08-01T15:46:11;27.50;92.30
22747;DHT22;11540;52.130;5.648;2022-08-01T15:48:37;27.40;92.10
22747;DHT22;11540;52.130;5.648;2022-08-01T15:51:03;27.30;92.50
22747;DHT22;11540;52.130;5.648;2022-08-01T15:53:28;27.10;92.80
22747;DHT22;11540;52.130;5.648;2022-08-01T15:55:54;26.90;93.80
22747;DHT22;11540;52.130;5.648;2022-08-01T15:58:19;26.90;93.80